Time;durP1;ratioP1;P1;durP2;ratioP2;P2;SDS_P1;SDS_P2;PMS_P1;PMS_P2;Temp;Humidity;BMP_temperature;BMP_pressure;BME280_temperature;BME280_humidity;BME280_pressure;Samples;Min_cycle;Max_cycle;Signal;HPM_P1;HPM_P2
2021/09/03 00:01:08;;;;;;;10.80;9.20;;;;;;;14.20;73.23;99413.47;2618315;54;20114;-65
2021/09/03 00:03:38;;;;;;;11.00;9.77;;;;;;;14.25;73.05;99411.03;2618201;47;20029;-65
2021/09/03 00:06:11;;;;;;;12.75;9.75;;;;;;;14.25;72.90;99403.06;2618902;54;20022;-65
2021/09/03 00:08:41;;;;;;;14.30;9.68;;;;;;;14.24;72.85;99405.91;2619064;54;20130;-65
2021/09/03 00:11:11;;;;;;;16.67;10.60;;;;;;;14.20;73.15;99402.81;2618092;47;20064;-65
2021/09/03 00:13:40;;;;;;;11.20;9.63;;;;;;;14.21;73.44;99409.81;2619478;39;20494;-65
2021/09/03 00:16:10;;;;;;;10.23;8.68;;;;;;;14.26;73.16;99395.91;2619027;54;20147;-65
2021/09/03 00:18:40;;;;;;;10.90;9.20;;;;;;;14.30;72.85;99397.13;2618425;54;20077;-65
2021/09/03 00:21:12;;;;;;;12.73;9.45;;;;;;;14.30;72.70;99397.94;2618450;54;20126;-67
2021/09/03 00:23:42;;;;;;;10.90;9.15;;;;;;;14.25;72.80;99395.06;2618573;54;20038;-66
2021/09/03 00:26:11;;;;;;;12.50;8.73;;;;;;;14.24;73.17;99398.72;2618855;54;20118;-66
2021/09/03 00:28:41;;;;;;;10.80;8.95;;;;;;;14.19;73.12;99395.88;2619003;54;20134;-66
2021/09/03 00:31:10;;;;;;;11.13;9.02;;;;;;;14.12;72.64;99390.56;2618367;54;20038;-66
2021/09/03 00:33:40;;;;;;;12.68;9.48;;;;;;;14.02;73.28;99395.41;2618236;54;20059;-66
2021/09/03 00:36:12;;;;;;;10.40;8.85;;;;;;;14.00;73.56;99394.81;2618563;54;20038;-66
2021/09/03 00:38:42;;;;;;;10.98;9.23;;;;;;;14.01;73.32;99390.31;2618796;54;20085;-66
2021/09/03 00:41:12;;;;;;;11.75;9.77;;;;;;;13.97;73.09;99397.06;2618299;54;20034;-67
2021/09/03 00:43:41;;;;;;;12.50;9.40;;;;;;;13.90;73.89;99389.03;2617759;51;20033;-67
2021/09/03 00:46:11;;;;;;;13.13;10.10;;;;;;;13.91;73.74;99395.19;2618629;54;20082;-67
2021/09/03 00:48:40;;;;;;;13.43;9.60;;;;;;;13.87;73.46;99386.78;2618036;54;20041;-66
2021/09/03 00:51:12;;;;;;;12.70;10.40;;;;;;;13.84;73.58;99380.03;2618604;54;20044;-66
2021/09/03 00:53:42;;;;;;;14.40;10.30;;;;;;;13.85;73.94;99379.03;2619018;54;20039;-66
2021/09/03 00:56:12;;;;;;;11.43;9.13;;;;;;;13.78;74.02;99378.16;2619015;54;20103;-67
2021/09/03 00:58:41;;;;;;;12.75;8.98;;;;;;;13.74;74.30;99376.13;2619103;47;20065;-68
2021/09/03 01:01:11;;;;;;;10.07;8.18;;;;;;;13.73;74.21;99383.28;2618389;54;20038;-67
2021/09/03 01:03:41;;;;;;;11.05;9.15;;;;;;;13.79;74.32;99371.00;2618363;54;20058;-67
2021/09/03 01:06:13;;;;;;;10.93;8.80;;;;;;;13.78;74.12;99374.69;2619021;39;20544;-67
2021/09/03 01:08:43;;;;;;;11.02;9.75;;;;;;;13.78;74.05;99372.84;2618991;54;20035;-67
2021/09/03 01:11:12;;;;;;;12.85;10.05;;;;;;;13.77;74.06;99371.22;2618109;47;20034;-67
2021/09/03 01:13:42;;;;;;;13.00;9.00;;;;;;;13.79;74.06;99363.84;2618959;54;20129;-68
2021/09/03 01:16:12;;;;;;;12.20;8.98;;;;;;;13.77;74.17;99362.44;2619187;54;20102;-66
2021/09/03 01:18:41;;;;;;;11.32;9.63;;;;;;;13.69;74.23;99362.63;2619625;54;20045;-67
2021/09/03 01:21:13;;;;;;;12.00;9.50;;;;;;;13.67;74.30;99361.97;2619585;54;20045;-66
2021/09/03 01:23:46;;;;;;;11.15;9.48;;;;;;;13.62;74.05;99367.88;2621294;54;20034;-66
2021/09/03 01:26:15;;;;;;;13.70;10.02;;;;;;;13.54;74.20;99366.22;2623442;54;20046;-67
2021/09/03 01:28:48;;;;;;;14.70;10.35;;;;;;;13.48;74.38;99368.88;2622787;54;20078;-66
2021/09/03 01:31:18;;;;;;;13.73;9.45;;;;;;;13.39;74.26;99365.56;2623558;39;20454;-66
2021/09/03 01:33:49;;;;;;;11.27;9.45;;;;;;;13.34;74.58;99368.78;2623638;54;20126;-66
2021/09/03 01:36:18;;;;;;;12.45;9.35;;;;;;;13.28;74.78;99364.28;2622320;54;20576;-66
2021/09/03 01:38:51;;;;;;;11.25;9.95;;;;;;;13.30;75.06;99369.38;2623099;54;20033;-68
2021/09/03 01:41:20;;;;;;;15.23;11.18;;;;;;;13.29;74.65;99368.56;2622527;54;20037;-67
2021/09/03 01:43:50;;;;;;;12.32;9.50;;;;;;;13.27;74.85;99370.59;2623177;54;20564;-69
2021/09/03 01:46:20;;;;;;;12.35;9.98;;;;;;;13.24;74.86;99372.81;2622856;54;20629;-67
2021/09/03 01:48:50;;;;;;;11.63;9.20;;;;;;;13.17;74.74;99359.47;2622811;54;20038;-67
2021/09/03 01:51:19;;;;;;;11.05;9.95;;;;;;;13.17;75.25;99356.00;2621892;54;20547;-67
2021/09/03 01:53:52;;;;;;;11.85;9.32;;;;;;;13.16;75.17;99354.38;2619894;54;20030;-66
2021/09/03 01:56:21;;;;;;;12.05;9.50;;;;;;;13.20;75.34;99356.44;2618323;54;20027;-66
2021/09/03 01:58:51;;;;;;;12.65;9.25;;;;;;;13.22;75.00;99362.34;2618348;47;20038;-67
2021/09/03 02:01:20;;;;;;;10.73;9.55;;;;;;;13.25;75.09;99356.69;2618512;54;20039;-66
2021/09/03 02:03:50;;;;;;;15.27;8.98;;;;;;;13.27;75.19;99359.16;2618964;54;20037;-66
2021/09/03 02:06:19;;;;;;;14.80;10.90;;;;;;;13.31;74.82;99353.25;2619537;54;20037;-66
2021/09/03 02:08:51;;;;;;;10.38;9.27;;;;;;;13.29;74.93;99354.47;2620968;54;20126;-66
2021/09/03 02:11:22;;;;;;;11.57;9.23;;;;;;;13.25;75.19;99353.22;2620196;39;20423;-67
2021/09/03 02:13:51;;;;;;;13.90;10.88;;;;;;;13.23;74.63;99356.06;2618732;39;20438;-67
2021/09/03 02:16:21;;;;;;;13.32;10.63;;;;;;;13.17;74.71;99353.34;2618825;54;20030;-66
2021/09/03 02:18:51;;;;;;;13.10;10.65;;;;;;;13.06;75.32;99357.34;2618689;54;20038;-66
2021/09/03 02:21:20;;;;;;;11.57;9.32;;;;;;;13.00;75.41;99355.50;2618248;54;20121;-66
2021/09/03 02:23:52;;;;;;;16.23;10.68;;;;;;;13.02;75.65;99361.41;2618550;54;20038;-66
2021/09/03 02:26:22;;;;;;;14.02;10.77;;;;;;;13.03;75.86;99357.75;2618899;39;20429;-66
2021/09/03 02:28:51;;;;;;;13.30;11.15;;;;;;;13.03;75.31;99360.41;2618758;54;20146;-67
2021/09/03 02:31:21;;;;;;;12.80;11.00;;;;;;;12.93;75.81;99358.09;2617514;50;20611;-67
2021/09/03 02:33:51;;;;;;;15.77;9.88;;;;;;;12.87;76.05;99357.03;2618315;54;20030;-67
2021/09/03 02:36:20;;;;;;;11.23;10.05;;;;;;;12.87;75.90;99359.69;2618816;39;20435;-66
2021/09/03 02:38:52;;;;;;;12.43;10.02;;;;;;;12.87;75.94;99364.19;2618184;54;20566;-67
2021/09/03 02:41:22;;;;;;;12.63;10.55;;;;;;;12.91;76.20;99360.13;2617296;54;20511;-67
2021/09/03 02:43:51;;;;;;;12.93;10.43;;;;;;;12.91;75.45;99359.31;2617901;54;20590;-66
2021/09/03 02:46:21;;;;;;;12.55;9.75;;;;;;;12.82;75.41;99356.81;2617290;47;20049;-66
2021/09/03 02:48:50;;;;;;;12.88;11.20;;;;;;;12.78;75.82;99357.41;2618187;54;20086;-66
2021/09/03 02:51:20;;;;;;;14.52;10.80;;;;;;;12.71;75.98;99360.00;2616843;47;20030;-67
2021/09/03 02:53:52;;;;;;;11.07;9.88;;;;;;;12.70;75.79;99353.06;2617328;47;20111;-67
2021/09/03 02:56:22;;;;;;;12.15;9.57;;;;;;;12.71;75.82;99360.00;2618068;54;20065;-66
2021/09/03 02:58:51;;;;;;;12.75;9.70;;;;;;;12.76;75.87;99348.78;2617713;54;20053;-66
2021/09/03 03:01:21;;;;;;;12.85;10.68;;;;;;;12.84;75.52;99346.00;2617398;54;20057;-66
2021/09/03 03:03:51;;;;;;;16.27;11.02;;;;;;;12.83;75.28;99339.88;2618223;54;20042;-67
2021/09/03 03:06:20;;;;;;;11.32;10.05;;;;;;;12.78;74.97;99344.13;2617810;54;20069;-67
2021/09/03 03:08:52;;;;;;;13.55;10.07;;;;;;;12.66;75.49;99340.38;2618115;54;20033;-67
2021/09/03 03:11:22;;;;;;;13.57;9.68;;;;;;;12.67;75.49;99342.81;2617829;54;20078;-67
2021/09/03 03:14:01;;;;;;;14.52;11.15;;;;;;;12.76;74.99;99339.00;2618352;54;20117;-67
2021/09/03 03:16:30;;;;;;;14.75;10.35;;;;;;;12.74;75.27;99342.88;2618408;54;20125;-67
2021/09/03 03:19:00;;;;;;;16.38;11.00;;;;;;;12.64;75.43;99344.00;2620824;31;20573;-67
2021/09/03 03:21:29;;;;;;;13.50;9.75;;;;;;;12.62;75.12;99339.94;2620249;54;20026;-66
2021/09/03 03:24:02;;;;;;;10.18;8.77;;;;;;;12.59;75.03;99337.66;2621866;39;20571;-67
2021/09/03 03:26:31;;;;;;;14.18;10.45;;;;;;;12.57;75.59;99344.97;2620112;54;20030;-67
2021/09/03 03:29:01;;;;;;;15.25;10.35;;;;;;;12.54;75.32;99342.72;2618510;54;20039;-67
2021/09/03 03:31:32;;;;;;;12.52;9.85;;;;;;;12.56;75.21;99351.28;2617246;47;20043;-67
2021/09/03 03:34:01;;;;;;;12.90;10.45;;;;;;;12.58;74.73;99346.63;2619043;39;20521;-67
2021/09/03 03:36:31;;;;;;;15.52;10.00;;;;;;;12.50;74.62;99344.13;2618377;54;20050;-67
2021/09/03 03:39:03;;;;;;;13.68;11.07;;;;;;;12.43;74.95;99337.94;2618102;54;20117;-67
2021/09/03 03:41:32;;;;;;;12.52;10.70;;;;;;;12.30;74.92;99334.16;2617699;54;20030;-67
2021/09/03 03:44:02;;;;;;;19.90;16.92;;;;;;;12.27;75.39;99331.88;2618044;54;20042;-67
2021/09/03 03:46:32;;;;;;;16.52;13.63;;;;;;;12.23;75.32;99324.50;2618061;54;20130;-67
2021/09/03 03:49:02;;;;;;;16.40;12.50;;;;;;;12.12;75.24;99325.81;2617993;54;20042;-67
2021/09/03 03:51:31;;;;;;;13.77;10.85;;;;;;;12.09;75.40;99342.94;2617602;54;20043;-67
2021/09/03 03:54:03;;;;;;;15.27;11.20;;;;;;;12.04;75.85;99341.84;2618041;54;20042;-66
2021/09/03 03:56:33;;;;;;;13.50;10.80;;;;;;;12.03;75.60;99346.31;2618151;54;20078;-67
2021/09/03 03:59:03;;;;;;;13.10;10.20;;;;;;;12.06;76.01;99340.66;2617883;54;20158;-67
2021/09/03 04:01:33;;;;;;;12.27;9.73;;;;;;;12.07;76.10;99350.25;2617808;54;20086;-66
2021/09/03 04:04:03;;;;;;;12.93;9.50;;;;;;;12.12;75.74;99350.53;2618040;54;20026;-67
2021/09/03 04:06:33;;;;;;;14.77;10.48;;;;;;;12.09;75.67;99352.72;2618338;54;20030;-66
2021/09/03 04:09:05;;;;;;;15.00;11.63;;;;;;;12.03;75.56;99348.16;2618202;54;20090;-66
2021/09/03 04:11:34;;;;;;;18.10;11.77;;;;;;;11.86;75.49;99353.69;2617658;54;20086;-66
2021/09/03 04:14:04;;;;;;;14.98;11.40;;;;;;;11.75;76.44;99353.34;2618651;39;20451;-66
2021/09/03 04:16:33;;;;;;;11.60;9.90;;;;;;;11.80;76.74;99350.97;2617500;54;20022;-66
2021/09/03 04:19:03;;;;;;;14.00;9.95;;;;;;;11.88;76.38;99353.53;2618677;39;20097;-67
2021/09/03 04:21:32;;;;;;;13.55;10.57;;;;;;;11.96;75.89;99353.41;2618522;54;20038;-66
2021/09/03 04:24:05;;;;;;;11.68;9.43;;;;;;;11.90;75.89;99344.38;2618970;54;20125;-67
2021/09/03 04:26:35;;;;;;;11.70;9.57;;;;;;;11.83;75.76;99348.78;2618080;54;20127;-67
2021/09/03 04:29:05;;;;;;;14.48;9.23;;;;;;;11.75;75.54;99351.50;2618800;54;20170;-67
2021/09/03 04:31:35;;;;;;;12.23;9.52;;;;;;;11.79;76.07;99352.78;2618287;54;20087;-66
2021/09/03 04:34:04;;;;;;;14.70;10.38;;;;;;;11.84;75.85;99345.13;2619273;39;20445;-66
2021/09/03 04:36:34;;;;;;;10.93;9.02;;;;;;;11.90;75.36;99343.56;2618898;54;20040;-66
2021/09/03 04:39:06;;;;;;;22.02;15.63;;;;;;;11.99;75.35;99350.38;2618734;54;20034;-66
2021/09/03 04:41:35;;;;;;;15.70;11.68;;;;;;;11.96;75.16;99344.63;2618873;39;20547;-66
2021/09/03 04:44:05;;;;;;;12.52;9.93;;;;;;;11.97;75.69;99343.63;2618763;54;20562;-66
2021/09/03 04:46:35;;;;;;;10.80;9.68;;;;;;;11.97;75.43;99341.81;2618777;54;20819;-66
2021/09/03 04:49:05;;;;;;;11.95;8.52;;;;;;;11.98;75.40;99347.91;2618917;39;20438;-67
2021/09/03 04:51:34;;;;;;;12.95;9.75;;;;;;;11.97;74.71;99352.41;2618051;54;20026;-67
2021/09/03 04:54:06;;;;;;;17.45;10.73;;;;;;;11.85;74.83;99354.72;2619847;54;20067;-67
2021/09/03 04:56:36;;;;;;;13.10;9.85;;;;;;;11.71;75.04;99352.88;2618658;47;20122;-67
2021/09/03 04:59:05;;;;;;;13.57;10.18;;;;;;;11.62;75.64;99354.00;2619408;39;20720;-67
2021/09/03 05:01:35;;;;;;;13.32;11.02;;;;;;;11.60;75.40;99345.44;2618283;54;20114;-67
2021/09/03 05:04:05;;;;;;;13.85;11.00;;;;;;;11.50;75.46;99351.00;2618746;54;20118;-67
2021/09/03 05:06:34;;;;;;;11.70;8.75;;;;;;;11.51;75.80;99354.47;2618626;54;20043;-67
2021/09/03 05:09:07;;;;;;;13.10;9.10;;;;;;;11.56;75.49;99354.75;2619279;54;20078;-66
2021/09/03 05:11:36;;;;;;;11.23;9.23;;;;;;;11.69;75.89;99354.91;2621555;39;20418;-66
2021/09/03 05:14:06;;;;;;;13.63;9.25;;;;;;;11.79;75.34;99363.38;2619041;54;20157;-66
2021/09/03 05:16:35;;;;;;;15.43;10.95;;;;;;;11.80;74.77;99357.09;2618647;54;20027;-66
2021/09/03 05:19:05;;;;;;;10.65;8.82;;;;;;;11.80;75.31;99349.13;2618033;54;20041;-66
2021/09/03 05:21:34;;;;;;;12.05;10.55;;;;;;;11.82;75.12;99360.34;2618783;31;20547;-67
2021/09/03 05:24:07;;;;;;;12.23;9.32;;;;;;;11.74;74.84;99355.16;2618634;54;20037;-66
2021/09/03 05:26:37;;;;;;;15.60;10.55;;;;;;;11.69;74.55;99362.03;2618562;54;20162;-66
2021/09/03 05:29:06;;;;;;;15.50;10.18;;;;;;;11.66;74.66;99361.38;2618328;54;20650;-66
2021/09/03 05:31:36;;;;;;;14.27;10.27;;;;;;;11.62;74.96;99361.94;2618342;54;20138;-67
2021/09/03 05:34:05;;;;;;;13.55;10.65;;;;;;;11.58;75.36;99363.31;2618162;47;20039;-67
2021/09/03 05:36:35;;;;;;;13.40;10.93;;;;;;;11.56;75.04;99360.06;2618398;54;20129;-67
2021/09/03 05:39:07;;;;;;;13.77;10.35;;;;;;;11.62;75.52;99362.75;2618462;54;20022;-67
2021/09/03 05:41:37;;;;;;;16.33;12.43;;;;;;;11.74;75.33;99365.75;2617552;47;20022;-67
2021/09/03 05:44:07;;;;;;;21.83;14.55;;;;;;;11.84;75.11;99357.56;2618911;54;20090;-66
2021/09/03 05:46:36;;;;;;;15.02;12.30;;;;;;;11.88;75.10;99364.94;2618846;54;20027;-66
2021/09/03 05:49:06;;;;;;;14.35;11.02;;;;;;;11.93;75.03;99366.22;2619007;54;20035;-66
2021/09/03 05:51:36;;;;;;;11.82;10.00;;;;;;;12.05;75.46;99370.00;2617794;49;20031;-66
2021/09/03 05:54:10;;;;;;;12.90;9.70;;;;;;;12.21;75.08;99366.31;2618583;54;20038;-66
2021/09/03 05:56:40;;;;;;;;;;;;;;;12.29;74.51;99360.88;2618251;54;20078;-66
2021/09/03 05:59:09;;;;;;;12.13;8.73;;;;;;;12.35;74.21;99360.09;2618740;54;19939;-66
2021/09/03 06:01:39;;;;;;;10.98;9.43;;;;;;;12.38;73.99;99355.25;2620621;54;20116;-66
2021/09/03 06:04:09;;;;;;;12.82;9.73;;;;;;;12.47;74.29;99355.09;2622711;54;20022;-66
2021/09/03 06:06:38;;;;;;;11.93;8.90;;;;;;;12.56;73.73;99353.94;2620362;54;20081;-66
2021/09/03 06:09:10;;;;;;;12.13;9.38;;;;;;;12.68;73.37;99351.59;2618563;54;20030;-66
2021/09/03 06:11:40;;;;;;;10.75;8.73;;;;;;;12.74;73.59;99351.66;2617960;47;20051;-66
2021/09/03 06:14:09;;;;;;;12.50;9.55;;;;;;;12.86;73.61;99346.63;2618701;54;20059;-66
2021/09/03 06:16:39;;;;;;;16.25;12.90;;;;;;;12.95;73.33;99348.13;2618797;54;20031;-66
2021/09/03 06:19:08;;;;;;;12.63;10.05;;;;;;;13.01;72.73;99349.16;2618606;54;20094;-66
2021/09/03 06:21:38;;;;;;;12.90;10.52;;;;;;;13.08;72.62;99348.19;2618135;47;20035;-66
2021/09/03 06:26:52;;;;;;;19.20;12.95;;;;;;;13.23;72.69;99352.59;2617904;54;20049;-68
2021/09/03 06:32:04;;;;;;;15.35;13.75;;;;;;;13.44;72.07;99344.53;2619461;39;20415;-67
2021/09/03 06:34:33;;;;;;;13.40;10.63;;;;;;;13.45;72.43;99337.38;2618506;54;20031;-66
2021/09/03 06:37:03;;;;;;;16.38;11.07;;;;;;;13.53;72.13;99337.22;2618670;54;20042;-65
2021/09/03 06:39:36;;;;;;;16.27;11.10;;;;;;;13.61;71.53;99337.84;2618310;54;20138;-65
2021/09/03 06:42:07;;;;;;;16.42;12.05;;;;;;;13.66;71.85;99339.09;2618631;54;20039;-66
2021/09/03 06:44:37;;;;;;;18.75;14.52;;;;;;;13.70;71.99;99338.50;2618210;54;20541;-66
2021/09/03 06:47:08;;;;;;;18.40;16.08;;;;;;;13.77;72.11;99347.31;2618332;47;20066;-66
2021/09/03 06:49:37;;;;;;;18.08;13.90;;;;;;;13.86;72.25;99343.44;2619448;54;20043;-66
2021/09/03 06:52:08;;;;;;;24.08;16.90;;;;;;;13.94;72.52;99342.44;2618898;54;20026;-65
2021/09/03 06:54:41;;;;;;;19.75;16.77;;;;;;;14.07;72.09;99339.00;2619160;54;20033;-65
2021/09/03 06:57:11;;;;;;;18.20;15.53;;;;;;;14.12;72.19;99344.50;2618605;54;20034;-66
2021/09/03 06:59:41;;;;;;;22.15;16.73;;;;;;;14.23;72.06;99345.78;2621986;54;20295;-66
2021/09/03 07:02:12;;;;;;;17.58;14.77;;;;;;;14.32;72.05;99341.88;2623600;54;20034;-66
2021/09/03 07:04:42;;;;;;;18.17;13.73;;;;;;;14.39;71.97;99345.38;2623174;47;20030;-66
2021/09/03 07:07:12;;;;;;;16.73;13.32;;;;;;;14.48;71.82;99344.13;2624102;54;20042;-66
2021/09/03 07:09:57;;;;;;;17.50;14.27;;;;;;;14.65;71.27;99347.22;2624114;54;20031;-64
2021/09/03 07:12:27;;;;;;;16.93;13.83;;;;;;;14.76;70.69;99332.50;2623476;54;20038;-66
2021/09/03 07:14:57;;;;;;;16.42;12.63;;;;;;;14.81;70.81;99338.00;2623226;54;20030;-66
2021/09/03 07:17:26;;;;;;;19.65;14.48;;;;;;;14.95;71.02;99336.16;2623023;47;20041;-66
2021/09/03 07:19:56;;;;;;;17.92;12.95;;;;;;;15.06;70.64;99330.19;2623179;54;20033;-66
2021/09/03 07:22:25;;;;;;;13.88;11.38;;;;;;;15.18;70.41;99336.50;2622322;54;20035;-66
2021/09/03 07:24:57;;;;;;;16.73;12.00;;;;;;;15.29;70.52;99341.19;2622467;54;20030;-66
2021/09/03 07:27:27;;;;;;;18.73;12.57;;;;;;;15.40;70.08;99345.06;2622833;54;20034;-66
2021/09/03 07:29:56;;;;;;;23.08;12.80;;;;;;;15.51;70.30;99340.91;2619403;54;20090;-66
2021/09/03 07:32:26;;;;;;;19.17;13.77;;;;;;;15.65;69.58;99339.84;2619075;54;20530;-66
2021/09/03 07:34:56;;;;;;;16.58;14.07;;;;;;;15.72;69.39;99337.97;2618713;47;20026;-66
2021/09/03 07:37:25;;;;;;;15.45;12.43;;;;;;;15.77;69.05;99335.50;2619250;54;20026;-66
2021/09/03 07:39:58;;;;;;;16.30;10.75;;;;;;;15.87;69.36;99342.19;2619066;54;20035;-66
2021/09/03 07:42:35;;;;;;;17.80;13.88;;;;;;;16.05;68.68;99335.13;2618874;54;20026;-65
2021/09/03 07:45:05;;;;;;;15.88;12.93;;;;;;;16.16;68.51;99330.13;2621651;54;20030;-70
2021/09/03 07:47:36;;;;;;;16.58;12.18;;;;;;;16.28;68.08;99326.53;2621861;54;20037;-69
2021/09/03 07:50:17;;;;;;;19.75;15.75;;;;;;;16.40;67.86;99328.50;2621413;54;20562;-69
2021/09/03 07:52:46;;;;;;;13.68;11.30;;;;;;;16.45;67.99;99321.50;2622465;54;20533;-69
2021/09/03 07:55:38;;;;;;;17.05;11.18;;;;;;;16.63;67.60;99323.41;2623400;46;20050;-69
2021/09/03 07:58:09;;;;;;;12.40;10.38;;;;;;;16.75;67.18;99323.53;2623095;54;20042;-71
2021/09/03 08:00:39;;;;;;;13.05;9.90;;;;;;;16.92;67.16;99324.59;2622540;54;20061;-70
2021/09/03 08:03:08;;;;;;;11.77;10.55;;;;;;;17.02;66.08;99321.38;2621980;47;20026;-71
2021/09/03 08:05:38;;;;;;;14.57;10.45;;;;;;;17.19;66.02;99327.00;2622391;54;20069;-70
2021/09/03 08:08:09;;;;;;;11.52;9.52;;;;;;;17.26;65.97;99328.53;2621586;31;20494;-70
2021/09/03 08:10:41;;;;;;;13.68;9.57;;;;;;;17.37;66.00;99318.13;2619977;39;20391;-71
2021/09/03 08:13:12;;;;;;;12.38;9.77;;;;;;;17.51;65.66;99320.44;2619465;54;20042;-71
2021/09/03 08:15:43;;;;;;;13.43;11.32;;;;;;;17.60;65.25;99315.59;2623675;54;20091;-70
2021/09/03 08:18:13;;;;;;;12.27;10.27;;;;;;;17.76;64.47;99306.97;2624246;54;20047;-70
2021/09/03 08:20:45;;;;;;;11.07;9.70;;;;;;;17.83;63.77;99307.66;2624082;54;20038;-69
2021/09/03 08:23:15;;;;;;;9.85;8.23;;;;;;;17.97;64.02;99304.84;2624253;54;20042;-69
2021/09/03 08:25:47;;;;;;;11.77;9.57;;;;;;;18.13;62.95;99300.69;2624452;54;20082;-71
2021/09/03 08:28:17;;;;;;;11.60;9.52;;;;;;;18.25;62.33;99304.19;2625357;54;20058;-70
2021/09/03 08:30:46;;;;;;;9.70;8.55;;;;;;;18.32;62.24;99295.00;2624992;54;20604;-70
2021/09/03 08:33:16;;;;;;;9.05;8.15;;;;;;;18.37;61.84;99302.34;2624981;54;20046;-71
2021/09/03 08:35:45;;;;;;;10.35;9.05;;;;;;;18.46;62.18;99298.28;2626725;39;20423;-70
2021/09/03 08:38:15;;;;;;;10.52;8.32;;;;;;;18.59;61.32;99289.22;2624701;47;20034;-70
2021/09/03 08:40:48;;;;;;;10.93;8.30;;;;;;;18.68;60.93;99290.47;2624600;54;20051;-70
2021/09/03 08:43:20;;;;;;;12.27;8.70;;;;;;;18.75;60.19;99283.19;2625391;39;20432;-70
2021/09/03 08:45:50;;;;;;;9.55;7.97;;;;;;;18.77;61.16;99272.22;2627138;39;20403;-70
2021/09/03 08:48:21;;;;;;;11.15;8.15;;;;;;;18.96;60.14;99286.31;2625805;39;20445;-70
2021/09/03 08:50:52;;;;;;;10.43;8.93;;;;;;;19.09;59.75;99286.03;2625458;54;20090;-70
2021/09/03 08:53:23;;;;;;;11.63;7.72;;;;;;;19.15;59.56;99284.31;2623556;54;20054;-72
2021/09/03 08:55:56;;;;;;;9.85;7.13;;;;;;;19.25;59.09;99287.19;2623598;54;20054;-70
2021/09/03 08:58:26;;;;;;;9.18;7.70;;;;;;;19.43;58.44;99287.00;2622819;54;20031;-70
2021/09/03 09:01:08;;;;;;;9.70;8.68;;;;;;;19.57;57.40;99289.41;2623823;54;20039;-70
2021/09/03 09:03:39;;;;;;;9.57;7.57;;;;;;;19.61;57.20;99288.72;2624789;39;20439;-70
2021/09/03 09:06:11;;;;;;;8.77;7.55;;;;;;;19.76;55.87;99288.19;2623875;54;20035;-71
2021/09/03 09:08:41;;;;;;;9.02;6.72;;;;;;;19.89;55.67;99287.91;2623300;54;20030;-71
2021/09/03 09:11:18;;;;;;;8.07;6.93;;;;;;;20.06;55.70;99282.53;2622305;47;20027;-71
2021/09/03 09:13:49;;;;;;;10.40;7.10;;;;;;;20.21;54.36;99285.50;2622827;54;20034;-70
2021/09/03 09:16:21;;;;;;;8.30;6.93;;;;;;;20.23;53.91;99288.72;2622918;47;20038;-69
2021/09/03 09:18:52;;;;;;;8.07;6.45;;;;;;;20.24;54.41;99284.97;2623344;39;20487;-71
2021/09/03 09:21:28;;;;;;;8.05;6.30;;;;;;;20.41;53.16;99276.13;2622919;54;20571;-71
2021/09/03 09:24:01;;;;;;;9.63;6.85;;;;;;;20.57;52.51;99283.38;2622568;54;20034;-69
2021/09/03 09:26:47;;;;;;;7.72;6.50;;;;;;;20.66;52.08;99283.78;2622786;54;20042;-69
2021/09/03 09:29:18;;;;;;;8.45;6.55;;;;;;;20.75;50.95;99277.75;2622722;31;20536;-70
2021/09/03 09:31:50;;;;;;;7.47;6.00;;;;;;;20.80;50.65;99268.94;2621459;54;20082;-68
2021/09/03 09:34:22;;;;;;;7.27;5.87;;;;;;;20.89;50.49;99266.63;2621950;54;20106;-70
2021/09/03 09:36:53;;;;;;;7.60;5.95;;;;;;;20.96;49.76;99268.06;2622357;54;20079;-71
2021/09/03 09:39:25;;;;;;;8.82;6.90;;;;;;;21.07;49.04;99265.53;2621665;54;20101;-70
2021/09/03 09:42:05;;;;;;;8.82;6.80;;;;;;;21.20;49.00;99265.97;2621730;54;20082;-70
2021/09/03 09:44:37;;;;;;;7.57;5.88;;;;;;;21.33;47.97;99255.91;2621770;54;20847;-71
2021/09/03 09:47:12;;;;;;;6.90;6.28;;;;;;;21.37;47.94;99254.34;2622806;54;20597;-72
2021/09/03 09:49:42;;;;;;;7.72;6.28;;;;;;;21.37;47.86;99255.16;2622047;54;20546;-71
2021/09/03 09:52:14;;;;;;;7.57;5.88;;;;;;;21.49;47.99;99249.66;2622080;47;20046;-71
2021/09/03 09:54:43;;;;;;;6.00;5.40;;;;;;;21.61;47.49;99247.63;2622200;54;20557;-72
2021/09/03 09:57:16;;;;;;;6.38;5.78;;;;;;;21.68;47.08;99250.13;2622131;54;20034;-72
2021/09/03 09:59:45;;;;;;;6.70;5.77;;;;;;;21.77;46.80;99246.69;2621557;47;20114;-72
2021/09/03 10:02:15;;;;;;;7.38;6.20;;;;;;;21.77;46.61;99253.97;2621648;54;20074;-73
2021/09/03 10:04:46;;;;;;;6.03;5.45;;;;;;;21.81;46.76;99255.06;2622093;54;20039;-73
2021/09/03 10:07:15;;;;;;;8.05;5.45;;;;;;;21.89;46.02;99246.53;2621976;31;20546;-72
2021/09/03 10:09:45;;;;;;;5.75;5.13;;;;;;;21.88;46.09;99244.09;2622010;54;20586;-72
2021/09/03 10:12:17;;;;;;;8.02;6.13;;;;;;;21.99;45.94;99243.13;2619056;54;20074;-69
2021/09/03 10:14:47;;;;;;;7.70;5.87;;;;;;;22.09;46.08;99232.44;2620084;54;20044;-69
2021/09/03 10:17:17;;;;;;;11.02;6.55;;;;;;;22.22;45.01;99237.41;2619938;54;20078;-71
2021/09/03 10:19:51;;;;;;;6.40;5.80;;;;;;;22.27;45.66;99236.63;2620233;54;20066;-70
2021/09/03 10:22:22;;;;;;;9.32;5.85;;;;;;;22.35;44.21;99240.72;2621594;39;20438;-71
2021/09/03 10:25:07;;;;;;;6.22;5.63;;;;;;;22.34;44.81;99233.72;2620833;54;20022;-71
2021/09/03 10:27:40;;;;;;;6.40;5.53;;;;;;;22.42;43.87;99230.56;2621303;54;20026;-71
2021/09/03 10:30:14;;;;;;;6.47;5.53;;;;;;;22.43;43.20;99234.88;2621013;54;20037;-71
2021/09/03 10:32:44;;;;;;;6.25;5.60;;;;;;;22.50;42.92;99224.69;2619512;54;20078;-70
2021/09/03 10:35:18;;;;;;;5.72;5.03;;;;;;;22.61;43.71;99223.66;2620197;54;20038;-70
2021/09/03 10:37:49;;;;;;;5.55;5.05;;;;;;;22.75;43.17;99224.81;2619187;54;20035;-71
2021/09/03 10:40:38;;;;;;;8.35;5.70;;;;;;;22.90;42.28;99223.25;2619718;54;20130;-70
2021/09/03 10:43:11;;;;;;;6.75;5.45;;;;;;;22.98;41.50;99217.38;2621785;47;20038;-70
2021/09/03 10:45:43;;;;;;;7.03;5.63;;;;;;;23.02;41.97;99215.78;2621811;54;20046;-70
2021/09/03 10:48:16;;;;;;;7.03;5.18;;;;;;;23.06;41.72;99216.06;2622403;47;20026;-71
2021/09/03 10:50:53;;;;;;;6.82;5.35;;;;;;;23.13;41.72;99212.06;2622571;54;20038;-71
2021/09/03 10:53:38;;;;;;;9.40;5.63;;;;;;;23.24;41.48;99208.31;2620962;54;20046;-71
2021/09/03 10:56:21;;;;;;;7.75;5.60;;;;;;;23.27;40.17;99209.69;2620166;54;20042;-69
2021/09/03 10:58:58;;;;;;;5.38;4.72;;;;;;;23.28;39.80;99207.78;2619425;54;20030;-70
2021/09/03 11:01:53;;;;;;;6.05;5.28;;;;;;;23.38;39.26;99205.91;2620709;54;20588;-70
2021/09/03 11:04:26;;;;;;;5.55;4.95;;;;;;;23.37;38.58;99196.22;2622200;54;20034;-69
2021/09/03 11:07:05;;;;;;;6.05;5.25;;;;;;;23.31;38.76;99196.47;2621868;54;20550;-70
2021/09/03 11:09:35;;;;;;;5.20;4.70;;;;;;;23.45;38.05;99194.88;2620460;39;20430;-70
2021/09/03 11:12:10;;;;;;;5.97;5.45;;;;;;;23.59;37.81;99192.47;2619278;47;20050;-71
2021/09/03 11:14:42;;;;;;;6.93;5.10;;;;;;;23.59;37.12;99195.97;2621822;54;20046;-71
2021/09/03 11:17:13;;;;;;;6.40;5.07;;;;;;;23.67;36.82;99195.47;2620998;39;20448;-71
2021/09/03 11:19:47;;;;;;;6.10;5.45;;;;;;;23.72;36.60;99191.97;2621345;39;20423;-70
2021/09/03 11:22:19;;;;;;;7.60;5.30;;;;;;;23.77;36.03;99185.78;2620327;47;20034;-71
2021/09/03 11:24:51;;;;;;;6.55;5.07;;;;;;;23.72;36.86;99192.78;2619340;54;20034;-70
2021/09/03 11:27:22;;;;;;;11.00;6.47;;;;;;;23.82;36.59;99183.06;2622601;39;20481;-70
2021/09/03 11:29:57;;;;;;;7.70;5.75;;;;;;;23.91;37.11;99182.25;2622443;54;20039;-70
2021/09/03 11:32:28;;;;;;;6.20;5.63;;;;;;;24.01;37.26;99181.44;2622817;54;20030;-70
2021/09/03 11:35:01;;;;;;;6.25;5.45;;;;;;;24.07;37.21;99174.94;2622521;54;20026;-70
2021/09/03 11:37:32;;;;;;;;;;;;;;;24.12;37.63;99183.03;2622751;54;20034;-71
2021/09/03 11:40:11;;;;;;;6.03;5.43;;;;;;;24.18;37.04;99184.66;2622381;54;19939;-71
2021/09/03 11:42:42;;;;;;;8.23;6.13;;;;;;;24.22;37.55;99179.53;2622986;54;20042;-71
2021/09/03 11:45:17;;;;;;;6.18;5.18;;;;;;;24.37;36.29;99173.25;2623652;47;20042;-71
2021/09/03 11:47:55;;;;;;;5.85;5.30;;;;;;;24.38;35.95;99173.03;2623393;54;20045;-71